Airfield :
LOGIN :

Register | Disclaimer

   EN    FR    IT 

 










Legend :    VFR   Marginal VFR   IFR   Intensive IFR   Very Intensive IFR
Visi :
Ceiling :
>= 8 km
>= 3000ft
5 to 8 km
1000 to 3000 ft
1500m to 5 km
500 to 1000 ft
800 to 1500m
200 to 500 ft
< 800m
< 200 ft
Symbols :   Thunderstorms  Fog  Heavy snow  Heavy precipitations  Wind > 20 kt
SIGMETs :     Misc.  Thunderstorms  Icing  Turbulence  Mountain Waves  Volcanic Ashes






- Airport Elevation : 341 ft


EPMO - Modlin

CURRENT METAR :
  • 280530Z 08003KT 050V110 0300 R08/0400N FG OVC000 02/02 Q1025

EXPIRED METARs :
  • 280500Z 08004KT 0250 R08/0275N FG SCT026 02/02 Q1025
  • 280300Z 11002KT 1600 BR BKN001 02/02 Q1025

TAF TAF EPMO
Valid from the 28 at 00:00 until the 29 at 00:00 UTC


272330Z 2800/2824 VRB03KT 2500 BR OVC005
TEMPO 2800/2808 1400 -DZ BR BKN003
PROB40 2800/2807 0800 FG BKN001
BECMG 2807/2810 15010KT 7000
BECMG 2810/2813 BKN012



MET'MAP, your aeronautical weather chart ! - Copyright ORBIFLY December 2007 - Disclaimer

ORBIFLY MET'MAP TEAM :

Programming & Development : Alexandra Zaïnal
Original concept : Baudouin d'Aumeries
Technical & hardware support : Manuel Goepfert
Assistance : Marc-Olivier Méhu




SOURCES & CREDITS :

   NOAA